Time;durP1;ratioP1;P1;durP2;ratioP2;P2;SDS_P1;SDS_P2;PMS_P1;PMS_P2;Temp;Humidity;BMP_temperature;BMP_pressure;BME280_temperature;BME280_humidity;BME280_pressure;Samples;Min_cycle;Max_cycle;Signal;HPM_P1;HPM_P2
2023/09/05 00:00:49;;;;;;;9.05;6.70;;;16.80;99.90;;;;;;5048907;28;20040;-56
2023/09/05 00:03:18;;;;;;;8.63;6.82;;;16.80;99.90;;;;;;5046840;28;20494;-55
2023/09/05 00:05:44;;;;;;;7.18;6.47;;;16.70;99.90;;;;;;5044032;28;20689;-57
2023/09/05 00:08:10;;;;;;;9.52;6.82;;;16.70;99.90;;;;;;5038934;28;20047;-57
2023/09/05 00:10:35;;;;;;;8.25;7.03;;;16.60;99.90;;;;;;5041409;28;20060;-56
2023/09/05 00:13:05;;;;;;;10.90;7.57;;;16.60;99.90;;;;;;5049359;28;20051;-58
2023/09/05 00:15:31;;;;;;;8.73;7.60;;;16.50;99.90;;;;;;5047064;28;20500;-57
2023/09/05 00:17:59;;;;;;;8.02;7.22;;;16.40;99.90;;;;;;5044376;28;20045;-57
2023/09/05 00:20:26;;;;;;;8.50;7.03;;;16.40;99.90;;;;;;5048333;28;20045;-58
2023/09/05 00:22:52;;;;;;;9.88;8.23;;;16.40;99.90;;;;;;5025268;28;20040;-56
2023/09/05 00:25:17;;;;;;;10.63;8.07;;;16.30;99.90;;;;;;5043432;28;20113;-57
2023/09/05 00:27:44;;;;;;;8.70;7.30;;;16.30;99.90;;;;;;5047084;28;20440;-57
2023/09/05 00:30:13;;;;;;;10.23;7.60;;;16.20;99.90;;;;;;5039383;28;20527;-57
2023/09/05 00:32:40;;;;;;;9.07;7.00;;;16.20;99.90;;;;;;5038773;28;20045;-57
2023/09/05 00:35:06;;;;;;;9.95;8.05;;;16.20;99.90;;;;;;5045629;28;20538;-57
2023/09/05 00:37:32;;;;;;;9.95;7.00;;;16.20;99.90;;;;;;5034818;28;20045;-57
2023/09/05 00:39:58;;;;;;;8.60;7.68;;;16.20;99.90;;;;;;5046560;28;20093;-56
2023/09/05 00:42:23;;;;;;;10.23;6.55;;;16.20;99.90;;;;;;5044634;28;20544;-57
2023/09/05 00:44:49;;;;;;;11.45;7.85;;;16.20;99.90;;;;;;5045273;28;20045;-57
2023/09/05 00:47:16;;;;;;;15.57;8.13;;;16.20;99.90;;;;;;5044503;28;20037;-57
2023/09/05 00:49:47;;;;;;;10.10;7.90;;;16.20;99.90;;;;;;5040746;28;20076;-57
2023/09/05 00:52:14;;;;;;;10.77;7.63;;;16.20;99.90;;;;;;5045034;28;20442;-56
2023/09/05 00:54:43;;;;;;;9.05;8.05;;;16.10;99.90;;;;;;5046314;28;20032;-56
2023/09/05 00:57:14;;;;;;;9.32;7.65;;;16.10;99.90;;;;;;5046300;28;20114;-56
2023/09/05 00:59:41;;;;;;;10.35;8.10;;;16.10;99.90;;;;;;5044631;28;20048;-56
2023/09/05 01:02:07;;;;;;;10.02;7.85;;;16.10;99.90;;;;;;5042875;28;20807;-56
2023/09/05 01:04:33;;;;;;;11.77;7.72;;;16.10;99.90;;;;;;5046039;28;20052;-57
2023/09/05 01:07:12;;;;;;;11.18;7.60;;;16.00;99.90;;;;;;5029362;28;20484;-57
2023/09/05 01:10:09;;;;;;;9.40;6.82;;;16.10;99.90;;;;;;5040764;28;20060;-57
2023/09/05 01:12:35;;;;;;;12.05;7.53;;;16.00;99.90;;;;;;5040794;28;20391;-55
2023/09/05 01:15:01;;;;;;;10.30;6.85;;;16.00;99.90;;;;;;5042509;28;20037;-56
2023/09/05 01:17:26;;;;;;;8.73;6.90;;;16.00;99.90;;;;;;5046044;28;20060;-56
2023/09/05 01:19:55;;;;;;;9.15;7.05;;;16.00;99.90;;;;;;5046191;28;20039;-57
2023/09/05 01:22:38;;;;;;;10.70;7.53;;;16.00;99.90;;;;;;5041401;28;20087;-57
2023/09/05 01:25:05;;;;;;;11.30;7.80;;;16.00;99.90;;;;;;5044445;28;20088;-57
2023/09/05 01:27:32;;;;;;;10.15;7.50;;;16.00;99.90;;;;;;5027362;28;20057;-57
2023/09/05 01:29:58;;;;;;;11.07;7.47;;;16.00;99.90;;;;;;5036772;28;20149;-56
2023/09/05 01:32:25;;;;;;;8.60;7.22;;;16.00;99.90;;;;;;5036188;28;20513;-56
2023/09/05 01:34:50;;;;;;;10.90;7.63;;;15.90;99.90;;;;;;5042446;28;20036;-56
2023/09/05 01:37:17;;;;;;;12.85;7.30;;;16.00;99.90;;;;;;5041981;28;20044;-56
2023/09/05 01:39:43;;;;;;;16.42;7.72;;;15.90;99.90;;;;;;5027184;28;20053;-56
2023/09/05 01:42:09;;;;;;;10.55;8.13;;;15.90;99.90;;;;;;5035006;28;20094;-57
2023/09/05 01:44:36;;;;;;;9.07;8.00;;;16.00;99.90;;;;;;5040967;28;20439;-57
2023/09/05 01:47:03;;;;;;;9.18;7.90;;;16.00;99.90;;;;;;5042143;28;20122;-56
2023/09/05 01:49:29;;;;;;;8.93;8.02;;;16.00;99.90;;;;;;5039011;28;20135;-56
2023/09/05 01:51:55;;;;;;;8.65;7.35;;;16.00;99.90;;;;;;5046526;28;20093;-56
2023/09/05 01:54:20;;;;;;;12.60;7.80;;;16.00;99.90;;;;;;5047130;28;20044;-57
2023/09/05 01:56:46;;;;;;;8.77;7.88;;;15.90;99.90;;;;;;5044674;28;20501;-55
2023/09/05 01:59:12;;;;;;;9.63;7.82;;;16.00;99.90;;;;;;5033528;28;20149;-57
2023/09/05 02:01:38;;;;;;;12.10;8.10;;;15.90;99.90;;;;;;5041162;28;20072;-57
2023/09/05 02:04:04;;;;;;;10.65;8.00;;;15.90;99.90;;;;;;5043041;28;20099;-56
2023/09/05 02:06:29;;;;;;;10.40;8.63;;;15.90;99.90;;;;;;5043393;28;20037;-56
2023/09/05 02:08:55;;;;;;;10.57;8.05;;;15.90;99.90;;;;;;5036054;28;20268;-56
2023/09/05 02:11:21;;;;;;;10.25;7.78;;;15.90;99.90;;;;;;5034322;28;20499;-57
2023/09/05 02:13:47;;;;;;;11.82;8.45;;;15.90;99.90;;;;;;5048131;28;20056;-56
2023/09/05 02:16:18;;;;;;;12.57;8.35;;;15.90;99.90;;;;;;5037544;28;20043;-56
2023/09/05 02:18:48;;;;;;;10.45;8.52;;;15.80;99.90;;;;;;5018937;28;20041;-56
2023/09/05 02:21:15;;;;;;;10.57;8.27;;;15.80;99.90;;;;;;5043573;28;20110;-57
2023/09/05 02:23:41;;;;;;;14.52;8.50;;;15.80;99.90;;;;;;5030321;28;20045;-57
2023/09/05 02:26:07;;;;;;;9.23;7.82;;;15.80;99.90;;;;;;5032896;28;20147;-57
2023/09/05 02:28:33;;;;;;;12.15;8.18;;;15.80;99.90;;;;;;5025131;28;20195;-56
2023/09/05 02:31:06;;;;;;;11.43;9.07;;;15.80;99.90;;;;;;5034116;28;20048;-56
2023/09/05 02:33:36;;;;;;;13.48;8.77;;;15.80;99.90;;;;;;5033930;28;20055;-55
2023/09/05 02:36:18;;;;;;;13.30;9.10;;;15.80;99.90;;;;;;5034768;28;20058;-57
2023/09/05 02:38:45;;;;;;;9.52;8.25;;;15.80;99.90;;;;;;5043090;28;20037;-57
2023/09/05 02:41:14;;;;;;;10.18;8.57;;;15.80;99.90;;;;;;5039292;28;20080;-56
2023/09/05 02:43:41;;;;;;;10.38;8.10;;;15.70;99.90;;;;;;5045806;28;20040;-57
2023/09/05 02:46:07;;;;;;;12.75;8.55;;;15.70;99.90;;;;;;5039126;28;20032;-54
2023/09/05 02:48:38;;;;;;;9.48;8.48;;;15.70;99.90;;;;;;5030178;28;20132;-57
2023/09/05 02:51:05;;;;;;;11.35;9.07;;;15.60;99.90;;;;;;5031335;28;20037;-56
2023/09/05 02:53:32;;;;;;;10.05;7.95;;;15.70;99.90;;;;;;5042099;28;20124;-55
2023/09/05 02:55:58;;;;;;;10.95;8.13;;;15.70;99.90;;;;;;5043405;28;20036;-57
2023/09/05 02:58:28;;;;;;;14.82;9.18;;;15.70;99.90;;;;;;5045803;28;20045;-56
2023/09/05 03:01:04;;;;;;;11.43;8.63;;;15.70;99.90;;;;;;5021090;28;20049;-57
2023/09/05 03:03:30;;;;;;;9.32;8.40;;;15.70;99.90;;;;;;5040898;28;20048;-55
2023/09/05 03:05:57;;;;;;;13.80;8.57;;;15.60;99.90;;;;;;5043062;28;20041;-57
2023/09/05 03:08:23;;;;;;;11.48;8.90;;;15.60;99.90;;;;;;5032846;28;20041;-56
2023/09/05 03:10:52;;;;;;;10.10;8.65;;;15.60;99.90;;;;;;5042019;28;20047;-56
2023/09/05 03:13:19;;;;;;;10.07;8.20;;;15.60;99.90;;;;;;5050744;28;20056;-57
2023/09/05 03:15:48;;;;;;;10.35;8.18;;;15.60;99.90;;;;;;5048279;28;20127;-57
2023/09/05 03:18:13;;;;;;;11.10;8.23;;;15.60;99.90;;;;;;5045889;28;20041;-57
2023/09/05 03:20:39;;;;;;;10.45;8.38;;;15.60;99.90;;;;;;5042201;28;20062;-57
2023/09/05 03:23:05;;;;;;;11.60;8.52;;;15.60;99.90;;;;;;5041391;28;20037;-57
2023/09/05 03:25:30;;;;;;;11.93;8.10;;;15.60;99.90;;;;;;5044991;28;20541;-57
2023/09/05 03:27:56;;;;;;;10.20;8.32;;;15.60;99.90;;;;;;5036594;28;20578;-56
2023/09/05 03:30:22;;;;;;;13.13;8.45;;;15.60;99.90;;;;;;5034943;28;20306;-57
2023/09/05 03:32:48;;;;;;;9.65;8.30;;;15.60;99.90;;;;;;5044809;28;20051;-55
2023/09/05 03:35:13;;;;;;;10.40;8.55;;;15.60;99.90;;;;;;5046157;28;24024;-58
2023/09/05 03:37:39;;;;;;;10.02;7.88;;;15.60;99.90;;;;;;5040811;28;20032;-57
2023/09/05 03:40:06;;;;;;;10.93;8.60;;;15.60;99.90;;;;;;5044037;28;20083;-57
2023/09/05 03:42:32;;;;;;;11.32;8.43;;;15.50;99.90;;;;;;5040483;28;20076;-57
2023/09/05 03:44:58;;;;;;;10.77;7.85;;;15.50;99.90;;;;;;5045082;28;20123;-54
2023/09/05 03:47:23;;;;;;;12.23;8.80;;;15.50;99.90;;;;;;5041177;28;20033;-57
2023/09/05 03:49:49;;;;;;;11.13;8.35;;;15.50;99.90;;;;;;5035061;28;20032;-56
2023/09/05 03:52:15;;;;;;;10.88;8.63;;;15.50;99.90;;;;;;5035689;28;20079;-57
2023/09/05 03:54:40;;;;;;;17.08;9.27;;;15.50;99.90;;;;;;5044753;28;20455;-56
2023/09/05 03:57:06;;;;;;;9.45;8.18;;;15.40;99.90;;;;;;5044699;28;20495;-58
2023/09/05 03:59:32;;;;;;;10.82;8.48;;;15.40;99.90;;;;;;5046220;28;20037;-57
2023/09/05 04:01:57;;;;;;;11.70;8.70;;;15.50;99.90;;;;;;5045633;28;20128;-56
2023/09/05 04:04:23;;;;;;;9.90;8.43;;;15.50;99.90;;;;;;5045283;28;20461;-57
2023/09/05 04:06:49;;;;;;;10.32;8.93;;;15.50;99.90;;;;;;5038062;28;20175;-57
2023/09/05 04:09:14;;;;;;;9.43;8.40;;;15.50;99.90;;;;;;5036401;28;20055;-57
2023/09/05 04:11:40;;;;;;;11.50;8.30;;;15.50;99.90;;;;;;5040637;28;20037;-53
2023/09/05 04:14:06;;;;;;;9.95;8.45;;;15.50;99.90;;;;;;5041286;28;20048;-57
2023/09/05 04:16:32;;;;;;;10.00;8.20;;;15.50;99.90;;;;;;5043397;28;20087;-57
2023/09/05 04:18:57;;;;;;;10.70;7.90;;;15.50;99.90;;;;;;5042807;28;20037;-57
2023/09/05 04:21:23;;;;;;;14.13;8.43;;;15.50;99.90;;;;;;5044541;28;20041;-57
2023/09/05 04:23:49;;;;;;;9.60;7.65;;;15.40;99.90;;;;;;5041580;28;20490;-57
2023/09/05 04:26:14;;;;;;;11.85;8.50;;;15.40;99.90;;;;;;5043096;28;20143;-56
2023/09/05 04:28:40;;;;;;;10.93;8.52;;;15.40;99.90;;;;;;5042923;28;20088;-58
2023/09/05 04:31:06;;;;;;;11.00;8.98;;;15.40;99.90;;;;;;5046726;28;20041;-55
2023/09/05 04:33:37;;;;;;;10.25;8.75;;;15.40;99.90;;;;;;5046795;28;20381;-57
2023/09/05 04:36:06;;;;;;;10.32;8.45;;;15.40;99.90;;;;;;5051759;28;20425;-56
2023/09/05 04:38:31;;;;;;;12.70;8.55;;;15.40;99.90;;;;;;5043331;28;20064;-57
2023/09/05 04:41:05;;;;;;;12.38;8.05;;;15.40;99.90;;;;;;5042524;28;20056;-54
2023/09/05 04:43:31;;;;;;;10.98;8.77;;;15.30;99.90;;;;;;5041113;28;20505;-57
2023/09/05 04:45:57;;;;;;;16.15;9.43;;;15.30;99.90;;;;;;5049794;28;20036;-57
2023/09/05 04:48:24;;;;;;;12.90;9.43;;;15.30;99.90;;;;;;5034331;28;20036;-57
2023/09/05 04:50:50;;;;;;;12.20;9.60;;;15.30;99.90;;;;;;5038594;28;20048;-57
2023/09/05 04:53:15;;;;;;;12.20;9.82;;;15.30;99.90;;;;;;5040914;28;20049;-57
2023/09/05 04:55:42;;;;;;;12.00;9.38;;;15.30;99.90;;;;;;5046853;28;20367;-57
2023/09/05 04:58:08;;;;;;;12.88;10.32;;;15.30;99.90;;;;;;5046046;28;20419;-57
2023/09/05 05:00:34;;;;;;;13.77;9.88;;;15.30;99.90;;;;;;5048640;28;20422;-55
2023/09/05 05:03:00;;;;;;;12.43;9.70;;;15.30;99.90;;;;;;5042830;28;20073;-57
2023/09/05 05:05:26;;;;;;;11.65;9.60;;;15.30;99.90;;;;;;5045080;28;20399;-56
2023/09/05 05:07:52;;;;;;;11.65;9.85;;;15.30;99.90;;;;;;5039136;28;20048;-58
2023/09/05 05:10:18;;;;;;;12.02;9.10;;;15.30;99.90;;;;;;5036535;28;20114;-56
2023/09/05 05:12:44;;;;;;;16.80;9.80;;;15.30;99.90;;;;;;5042746;28;20055;-57
2023/09/05 05:15:09;;;;;;;11.48;9.70;;;15.30;99.90;;;;;;5046773;28;20072;-57
2023/09/05 05:17:36;;;;;;;11.00;8.30;;;15.30;99.90;;;;;;5043079;28;20040;-57
2023/09/05 05:20:05;;;;;;;10.55;8.85;;;15.30;99.90;;;;;;5039962;28;20144;-57
2023/09/05 05:22:30;;;;;;;18.05;9.93;;;15.30;99.90;;;;;;5041018;28;20044;-57
2023/09/05 05:24:56;;;;;;;13.93;10.07;;;15.30;99.90;;;;;;5043440;28;20401;-57
2023/09/05 05:27:22;;;;;;;12.20;9.10;;;15.30;99.90;;;;;;5044730;28;20052;-57
2023/09/05 05:29:48;;;;;;;12.77;9.07;;;15.40;99.90;;;;;;5036908;28;20082;-56
2023/09/05 05:32:14;;;;;;;11.52;9.45;;;15.30;99.90;;;;;;5029403;28;20037;-57
2023/09/05 05:34:39;;;;;;;13.32;10.00;;;15.40;99.90;;;;;;5032378;28;20459;-57
2023/09/05 05:37:05;;;;;;;13.68;9.73;;;15.40;99.90;;;;;;5036756;28;20045;-57
2023/09/05 05:39:31;;;;;;;14.90;10.13;;;15.40;99.90;;;;;;5034578;28;20040;-57
2023/09/05 05:41:56;;;;;;;12.45;9.30;;;15.40;99.90;;;;;;5038374;28;20047;-57
2023/09/05 05:44:22;;;;;;;16.42;10.10;;;15.40;99.90;;;;;;5041872;28;20098;-56
2023/09/05 05:46:48;;;;;;;14.32;10.63;;;15.40;99.90;;;;;;5044803;28;20036;-57
2023/09/05 05:49:13;;;;;;;12.00;10.05;;;15.40;99.90;;;;;;5046448;28;20372;-57
2023/09/05 05:51:40;;;;;;;15.75;10.80;;;15.40;99.90;;;;;;5021901;28;20049;-56
2023/09/05 05:54:07;;;;;;;12.07;10.35;;;15.40;99.90;;;;;;5036538;28;20045;-57
2023/09/05 05:56:34;;;;;;;12.77;9.00;;;15.40;99.90;;;;;;5035550;28;20139;-57
2023/09/05 05:59:00;;;;;;;13.07;9.85;;;15.40;99.90;;;;;;5026503;28;20522;-58
2023/09/05 06:01:26;;;;;;;11.13;9.82;;;15.50;99.90;;;;;;5031781;28;20629;-56
2023/09/05 06:03:52;;;;;;;15.75;10.50;;;15.50;99.90;;;;;;5025969;28;20064;-59
2023/09/05 06:06:18;;;;;;;14.95;10.07;;;15.50;99.90;;;;;;5028698;28;20388;-58
2023/09/05 06:08:44;;;;;;;17.38;11.02;;;15.60;99.90;;;;;;5027069;28;20069;-57
2023/09/05 06:11:10;;;;;;;13.85;10.65;;;15.60;99.90;;;;;;5036152;28;20439;-58
2023/09/05 06:13:36;;;;;;;13.32;10.07;;;15.60;99.90;;;;;;5036114;28;20470;-59
2023/09/05 06:16:02;;;;;;;12.85;10.13;;;15.70;99.90;;;;;;5036945;28;20692;-58
2023/09/05 06:18:27;;;;;;;17.50;9.98;;;15.70;99.90;;;;;;5036951;28;20052;-59
2023/09/05 06:20:53;;;;;;;15.13;10.65;;;15.80;99.90;;;;;;5032473;28;20064;-58
2023/09/05 06:23:19;;;;;;;12.30;10.02;;;15.80;99.90;;;;;;5038282;28;20128;-59
2023/09/05 06:25:44;;;;;;;16.00;10.65;;;15.90;99.90;;;;;;5038607;28;20537;-57
2023/09/05 06:28:10;;;;;;;12.77;10.25;;;15.90;99.90;;;;;;5036090;28;20049;-58
2023/09/05 06:30:39;;;;;;;19.13;10.65;;;15.90;99.90;;;;;;5028985;28;20055;-58
2023/09/05 06:33:05;;;;;;;17.88;9.50;;;16.00;99.90;;;;;;5038340;28;20045;-58
2023/09/05 06:35:30;;;;;;;14.68;10.55;;;16.00;99.90;;;;;;5036347;28;22092;-59
2023/09/05 06:37:56;;;;;;;15.65;10.27;;;16.10;99.90;;;;;;5033699;28;20044;-59
2023/09/05 06:40:23;;;;;;;15.07;10.50;;;16.20;99.90;;;;;;5036471;28;20040;-58
2023/09/05 06:42:51;;;;;;;12.55;10.25;;;16.20;99.90;;;;;;5029874;28;20037;-57
2023/09/05 06:45:16;;;;;;;13.50;9.75;;;16.30;99.90;;;;;;5028130;28;20060;-58
2023/09/05 06:47:42;;;;;;;18.52;9.57;;;16.30;99.90;;;;;;5037025;28;20044;-58
2023/09/05 06:50:10;;;;;;;16.67;9.45;;;16.40;99.90;;;;;;5036049;28;20048;-58
2023/09/05 06:52:36;;;;;;;14.57;9.82;;;16.40;99.90;;;;;;5036935;28;20048;-58
2023/09/05 06:55:01;;;;;;;14.65;10.70;;;16.50;99.90;;;;;;5036980;28;20036;-58
2023/09/05 06:57:27;;;;;;;13.25;10.40;;;16.60;99.90;;;;;;5036141;28;20045;-58
2023/09/05 06:59:53;;;;;;;18.40;10.43;;;16.60;99.90;;;;;;5039645;28;20071;-58
2023/09/05 07:02:19;;;;;;;19.25;10.68;;;16.70;99.90;;;;;;5042641;28;20141;-59
2023/09/05 07:04:45;;;;;;;14.95;10.52;;;16.70;99.90;;;;;;5034516;28;20053;-58
2023/09/05 07:07:11;;;;;;;12.40;9.52;;;16.80;99.90;;;;;;5034765;28;20045;-59
2023/09/05 07:09:37;;;;;;;15.85;10.20;;;16.90;99.90;;;;;;5030086;28;20033;-59
2023/09/05 07:12:04;;;;;;;11.20;9.48;;;16.90;99.90;;;;;;5035028;28;20128;-59
2023/09/05 07:14:30;;;;;;;14.30;9.50;;;17.00;99.90;;;;;;5033779;28;20474;-58
2023/09/05 07:16:56;;;;;;;13.27;9.90;;;17.10;99.90;;;;;;5033908;28;20110;-59
2023/09/05 07:19:22;;;;;;;12.07;9.15;;;17.20;99.90;;;;;;5034571;28;20864;-59
2023/09/05 07:21:48;;;;;;;13.00;9.65;;;17.30;99.90;;;;;;5029394;28;20107;-59
2023/09/05 07:24:15;;;;;;;13.23;9.70;;;17.40;99.90;;;;;;5030228;28;20044;-59
2023/09/05 07:26:41;;;;;;;12.93;8.70;;;17.50;99.90;;;;;;5032246;28;20048;-59
2023/09/05 07:29:10;;;;;;;12.90;9.25;;;17.60;99.90;;;;;;5017702;28;20041;-58
2023/09/05 07:31:39;;;;;;;15.63;9.38;;;17.70;99.90;;;;;;5038237;28;20060;-57
2023/09/05 07:34:06;;;;;;;12.00;8.60;;;17.90;99.90;;;;;;5039981;28;20120;-59
2023/09/05 07:36:33;;;;;;;11.07;9.15;;;18.00;99.90;;;;;;5038663;28;20048;-57
2023/09/05 07:39:01;;;;;;;11.15;8.43;;;18.20;99.90;;;;;;5031828;28;20048;-59
2023/09/05 07:41:29;;;;;;;14.43;9.00;;;18.30;99.90;;;;;;5037039;28;20041;-59
2023/09/05 07:43:55;;;;;;;13.20;8.18;;;18.50;99.90;;;;;;5036428;28;20119;-58
2023/09/05 07:46:21;;;;;;;10.35;7.93;;;18.70;99.90;;;;;;5037990;28;20478;-59
2023/09/05 07:48:47;;;;;;;12.63;8.15;;;18.80;99.90;;;;;;5039378;28;20566;-59
2023/09/05 07:51:13;;;;;;;11.95;7.72;;;18.90;99.90;;;;;;5034837;28;20059;-59
2023/09/05 07:53:39;;;;;;;10.65;7.70;;;19.10;99.90;;;;;;5037899;28;20049;-58
2023/09/05 07:56:06;;;;;;;13.02;7.43;;;19.30;99.90;;;;;;5038225;28;20036;-59
2023/09/05 07:58:32;;;;;;;11.43;7.30;;;19.40;99.90;;;;;;5041160;28;20131;-59
2023/09/05 08:00:59;;;;;;;10.73;7.18;;;19.60;99.90;;;;;;5039961;28;20056;-59
2023/09/05 08:03:26;;;;;;;14.45;7.40;;;19.70;99.90;;;;;;5036889;28;20383;-59
2023/09/05 08:05:53;;;;;;;9.80;6.65;;;19.90;99.90;;;;;;5038935;28;20068;-59
2023/09/05 08:08:20;;;;;;;10.93;6.95;;;20.00;99.90;;;;;;5037621;28;20041;-59
2023/09/05 08:10:47;;;;;;;10.70;7.43;;;20.10;99.90;;;;;;5040876;28;20049;-59
2023/09/05 08:13:14;;;;;;;8.95;6.50;;;20.20;99.90;;;;;;5041285;28;20053;-59
2023/09/05 08:15:43;;;;;;;11.73;6.78;;;20.40;99.90;;;;;;5042734;28;20053;-59
2023/09/05 08:18:10;;;;;;;9.32;6.13;;;20.60;99.90;;;;;;5036356;28;20048;-59
2023/09/05 08:20:36;;;;;;;11.88;6.22;;;20.70;99.90;;;;;;5037586;28;20056;-58
2023/09/05 08:23:03;;;;;;;10.43;6.30;;;20.80;99.90;;;;;;5040408;28;20045;-59
2023/09/05 08:25:32;;;;;;;10.93;6.18;;;21.00;99.90;;;;;;5020197;28;20065;-59
2023/09/05 08:27:58;;;;;;;9.35;5.85;;;21.10;99.90;;;;;;5043429;28;20075;-59
2023/09/05 08:30:24;;;;;;;9.20;6.55;;;21.30;99.90;;;;;;5038676;28;20157;-59
2023/09/05 08:32:52;;;;;;;8.75;6.18;;;21.40;99.90;;;;;;5036841;28;20091;-59
2023/09/05 08:35:18;;;;;;;13.02;6.38;;;21.60;99.90;;;;;;5040611;28;20084;-59
2023/09/05 08:37:44;;;;;;;11.07;5.93;;;21.70;99.90;;;;;;5039937;28;22063;-59
2023/09/05 08:40:11;;;;;;;8.23;5.93;;;21.90;99.90;;;;;;5041508;28;20514;-59
2023/09/05 08:42:38;;;;;;;8.80;5.93;;;21.90;99.90;;;;;;5038879;28;20103;-58
2023/09/05 08:45:08;;;;;;;9.65;5.80;;;22.10;99.90;;;;;;5038384;28;20510;-59
2023/09/05 08:47:34;;;;;;;12.30;5.70;;;22.20;99.90;;;;;;5040575;28;20049;-59
2023/09/05 08:50:00;;;;;;;13.35;5.95;;;22.40;99.90;;;;;;5042933;28;20423;-59
2023/09/05 08:52:31;;;;;;;7.97;5.50;;;22.50;99.90;;;;;;5040451;28;20202;-59
2023/09/05 08:54:58;;;;;;;7.50;5.25;;;22.60;99.90;;;;;;5039490;28;20101;-59
2023/09/05 08:57:25;;;;;;;7.93;5.28;;;22.80;99.90;;;;;;5034051;28;20158;-57
2023/09/05 08:59:54;;;;;;;6.93;4.78;;;22.90;99.90;;;;;;5008264;28;20455;-59
2023/09/05 09:02:20;;;;;;;9.52;5.00;;;23.10;99.90;;;;;;5032132;28;20175;-59
2023/09/05 09:04:55;;;;;;;10.05;5.47;;;23.20;99.90;;;;;;5034194;28;20463;-59
2023/09/05 09:07:29;;;;;;;7.43;4.90;;;23.40;99.90;;;;;;5040967;28;20048;-59
2023/09/05 09:09:55;;;;;;;13.15;5.00;;;23.50;99.90;;;;;;5037698;28;20113;-59
2023/09/05 09:12:31;;;;;;;9.48;5.47;;;23.60;99.90;;;;;;5037255;28;20112;-60
2023/09/05 09:15:17;;;;;;;6.10;4.57;;;23.80;99.90;;;;;;5037252;28;20586;-58
2023/09/05 09:17:47;;;;;;;8.40;4.45;;;23.90;99.90;;;;;;5037741;28;20066;-59
2023/09/05 09:20:14;;;;;;;7.22;4.18;;;24.10;99.90;;;;;;5038287;28;20048;-59
2023/09/05 09:22:41;;;;;;;7.20;4.13;;;24.20;99.90;;;;;;5041373;28;20052;-58
2023/09/05 09:25:12;;;;;;;7.43;3.80;;;24.30;99.90;;;;;;5037425;28;20410;-58
2023/09/05 09:27:39;;;;;;;8.00;4.05;;;24.40;99.90;;;;;;5038552;28;20125;-59
2023/09/05 09:30:09;;;;;;;7.07;3.95;;;24.50;99.90;;;;;;5036529;28;22178;-59
2023/09/05 09:32:37;;;;;;;5.15;3.90;;;24.70;99.90;;;;;;5042178;28;20044;-60
2023/09/05 09:35:10;;;;;;;7.75;3.80;;;24.90;99.90;;;;;;5040930;28;20043;-59
2023/09/05 09:37:36;;;;;;;7.07;3.78;;;25.00;99.90;;;;;;5039737;28;20139;-59
2023/09/05 09:40:06;;;;;;;6.47;3.72;;;25.10;99.90;;;;;;5037199;28;20110;-58
2023/09/05 09:42:34;;;;;;;6.90;3.80;;;25.20;99.90;;;;;;5037584;28;20118;-60
2023/09/05 09:45:04;;;;;;;6.55;3.80;;;25.40;99.90;;;;;;5038976;28;20043;-60
2023/09/05 09:47:32;;;;;;;4.22;3.45;;;25.50;99.90;;;;;;5039368;28;20110;-59
2023/09/05 09:49:58;;;;;;;5.47;3.50;;;25.70;99.90;;;;;;5039842;28;20033;-60
2023/09/05 09:52:27;;;;;;;6.32;3.30;;;25.90;99.70;;;;;;5037853;28;20078;-59
2023/09/05 09:54:56;;;;;;;6.60;3.25;;;26.00;99.30;;;;;;5033130;28;20041;-60
2023/09/05 09:57:30;;;;;;;5.57;3.10;;;26.20;99.20;;;;;;5035749;28;20080;-60
2023/09/05 10:00:00;;;;;;;3.22;2.92;;;26.30;99.10;;;;;;5025684;28;20065;-59
2023/09/05 10:02:28;;;;;;;6.15;3.45;;;26.50;98.60;;;;;;5039987;28;20041;-59
2023/09/05 10:04:57;;;;;;;5.25;3.50;;;26.60;97.80;;;;;;5039871;28;20108;-59
2023/09/05 10:07:24;;;;;;;3.92;2.60;;;26.60;97.50;;;;;;5034337;28;20052;-59
2023/09/05 10:09:51;;;;;;;5.13;2.67;;;26.70;97.20;;;;;;5026099;28;20041;-59
2023/09/05 10:12:20;;;;;;;3.42;2.28;;;26.80;96.50;;;;;;5035969;28;20045;-59
2023/09/05 10:14:48;;;;;;;4.00;2.40;;;27.00;96.00;;;;;;5036755;28;20407;-60
2023/09/05 10:17:15;;;;;;;7.25;2.47;;;27.10;95.70;;;;;;5032831;28;20037;-60
2023/09/05 10:19:43;;;;;;;4.10;2.58;;;27.30;94.90;;;;;;5033294;28;20036;-59
2023/09/05 10:22:11;;;;;;;5.75;2.67;;;27.40;94.30;;;;;;5036249;28;20539;-60
2023/09/05 10:24:37;;;;;;;4.97;2.60;;;27.50;94.20;;;;;;5033451;28;20041;-60
2023/09/05 10:27:04;;;;;;;4.07;2.90;;;27.60;93.90;;;;;;5035421;28;20245;-59
2023/09/05 10:29:34;;;;;;;7.18;3.00;;;27.80;94.20;;;;;;5036313;28;20102;-60
2023/09/05 10:32:01;;;;;;;5.35;2.67;;;28.00;93.50;;;;;;5033093;28;20269;-60
2023/09/05 10:35:01;;;;;;;9.25;2.30;;;28.00;92.90;;;;;;5034239;28;20056;-60
2023/09/05 10:37:39;;;;;;;4.82;3.03;;;28.10;93.10;;;;;;5038988;28;20056;-59
2023/09/05 10:40:09;;;;;;;6.57;2.40;;;28.10;92.30;;;;;;5035825;28;20037;-61
2023/09/05 10:42:41;;;;;;;4.28;2.38;;;28.30;92.70;;;;;;5039711;28;20171;-60
2023/09/05 10:45:22;;;;;;;3.88;2.40;;;28.40;92.00;;;;;;5034655;28;20044;-61
2023/09/05 10:47:53;;;;;;;3.90;2.55;;;28.60;91.40;;;;;;5037036;28;20045;-61
2023/09/05 10:50:20;;;;;;;5.70;3.38;;;28.80;91.60;;;;;;5038790;28;20411;-61
2023/09/05 10:52:50;;;;;;;3.35;2.47;;;28.80;90.70;;;;;;5013926;28;20599;-61
2023/09/05 10:55:44;;;;;;;6.45;2.10;;;28.80;90.40;;;;;;5038743;28;20055;-61
2023/09/05 10:58:53;;;;;;;3.60;2.25;;;28.90;90.60;;;;;;5037897;28;20129;-61
2023/09/05 11:01:48;;;;;;;3.22;2.22;;;29.10;90.30;;;;;;5032501;28;20046;-60
2023/09/05 11:04:19;;;;;;;7.40;2.20;;;29.30;88.60;;;;;;5033420;28;20847;-61
2023/09/05 11:07:18;;;;;;;2.38;2.03;;;29.40;88.30;;;;;;5036785;28;20055;-61
2023/09/05 11:09:51;;;;;;;4.07;2.60;;;29.60;89.90;;;;;;5020523;28;20464;-60
2023/09/05 11:12:18;;;;;;;2.42;2.00;;;29.70;88.30;;;;;;5026712;28;20059;-61
2023/09/05 11:14:44;;;;;;;3.70;2.15;;;29.90;85.50;;;;;;5037090;28;20049;-61
2023/09/05 11:17:17;;;;;;;3.25;2.30;;;29.90;83.50;;;;;;5038122;28;20582;-60
2023/09/05 11:19:48;;;;;;;3.33;1.90;;;29.90;81.60;;;;;;5039545;28;20404;-61
2023/09/05 11:22:23;;;;;;;6.70;2.20;;;30.00;81.90;;;;;;5037106;28;20138;-60
2023/09/05 11:24:50;;;;;;;4.22;2.00;;;30.10;81.70;;;;;;5035424;28;20040;-60
2023/09/05 11:27:37;;;;;;;3.47;2.25;;;30.30;81.20;;;;;;5033680;28;20057;-60
2023/09/05 11:30:06;;;;;;;4.88;1.83;;;30.50;81.90;;;;;;5038153;28;20052;-60
2023/09/05 11:32:42;;;;;;;3.97;2.20;;;30.60;79.30;;;;;;5040949;28;20049;-61
2023/09/05 11:35:10;;;;;;;4.93;1.95;;;30.60;79.00;;;;;;5040825;28;20124;-60
2023/09/05 11:37:35;;;;;;;4.40;1.88;;;30.60;78.00;;;;;;5043441;28;20123;-61
2023/09/05 11:40:13;;;;;;;2.78;2.20;;;30.70;78.70;;;;;;5040250;28;20060;-60
2023/09/05 11:42:39;;;;;;;2.92;2.05;;;31.00;78.50;;;;;;5035754;28;20055;-60
2023/09/05 11:45:16;;;;;;;3.90;2.10;;;31.10;77.60;;;;;;5040032;28;20049;-60
2023/09/05 11:47:42;;;;;;;2.95;1.90;;;31.10;76.20;;;;;;5039230;28;20723;-60
2023/09/05 11:50:08;;;;;;;1.75;1.50;;;31.20;77.00;;;;;;5036693;28;20253;-61
2023/09/05 11:52:40;;;;;;;5.45;2.00;;;31.40;76.00;;;;;;5032729;28;20380;-61
2023/09/05 11:55:06;;;;;;;2.97;1.88;;;31.40;73.70;;;;;;5038808;28;20052;-61
2023/09/05 11:57:33;;;;;;;2.05;1.65;;;31.40;72.50;;;;;;5037664;28;20048;-61
2023/09/05 11:59:59;;;;;;;2.90;1.70;;;31.30;72.10;;;;;;5039890;28;20048;-62
2023/09/05 12:02:26;;;;;;;3.53;1.90;;;31.40;71.50;;;;;;5039214;28;20048;-60
2023/09/05 12:04:52;;;;;;;3.75;1.80;;;31.40;71.00;;;;;;5042199;28;20074;-61
2023/09/05 12:07:23;;;;;;;3.92;1.88;;;31.40;71.40;;;;;;5041674;28;20542;-61
2023/09/05 12:09:49;;;;;;;5.15;1.80;;;31.60;70.40;;;;;;5040831;28;20127;-60
2023/09/05 12:12:19;;;;;;;3.75;1.67;;;31.70;69.80;;;;;;5022970;28;20041;-61
2023/09/05 12:14:54;;;;;;;4.72;1.45;;;31.70;68.90;;;;;;5036134;28;20056;-60
2023/09/05 12:17:22;;;;;;;2.70;1.50;;;31.90;69.20;;;;;;5041165;28;20150;-59
2023/09/05 12:19:49;;;;;;;3.90;1.73;;;32.00;69.50;;;;;;5039751;28;20067;-60
2023/09/05 12:22:22;;;;;;;3.95;1.73;;;32.10;67.50;;;;;;5028913;28;20102;-59
2023/09/05 12:24:48;;;;;;;3.10;1.98;;;32.00;67.80;;;;;;5039338;28;20120;-59
2023/09/05 12:27:28;;;;;;;3.53;1.80;;;32.20;68.30;;;;;;5037252;28;20048;-60
2023/09/05 12:29:55;;;;;;;2.95;1.85;;;32.20;67.50;;;;;;5040702;28;20037;-59
2023/09/05 12:32:26;;;;;;;4.05;1.75;;;32.20;66.40;;;;;;5043172;28;20564;-60
2023/09/05 12:34:53;;;;;;;2.03;1.50;;;32.20;67.10;;;;;;5039170;28;20131;-59
2023/09/05 12:37:19;;;;;;;5.45;1.80;;;32.40;67.60;;;;;;5032614;28;20037;-59
2023/09/05 12:39:45;;;;;;;3.75;1.88;;;32.40;65.80;;;;;;5039864;28;20078;-60
2023/09/05 12:42:11;;;;;;;2.05;1.42;;;32.50;66.20;;;;;;5039625;28;20586;-58
2023/09/05 12:44:37;;;;;;;1.63;1.50;;;32.60;65.90;;;;;;5040068;28;20041;-61